EGHI - Southampton Weather Centre
Distance from station: E 5mi, 14km
Updated: 10/17/2017 7:50am
Light rain, Few clouds
Light rain, Few clouds
 Wind from varies
Wind: varies 1 mph , 2 km/h
Temperature: 54°F , 12°C
Dew Point: 48°F , 9°C
Humidity: 82%
Barometer: 30.06 inHg , 1018 hPa
Summary: Light Rain
Clouds: Few Clouds
Visibility: 6 miles , 10 km
Cloud details: Few Clouds 4000 ft
2017/10/17 14:50 EGHI 171450Z VRB01KT 9999 -RA FEW040 12/09 Q1018